Time;durP1;ratioP1;P1;durP2;ratioP2;P2;SDS_P1;SDS_P2;PMS_P1;PMS_P2;Temp;Humidity;BMP_temperature;BMP_pressure;BME280_temperature;BME280_humidity;BME280_pressure;Samples;Min_cycle;Max_cycle;Signal;HPM_P1;HPM_P2
2023/12/19 00:01:25;;;;;;;48.00;24.85;;;8.20;99.90;;;;;;5056340;28;20063;-19
2023/12/19 00:03:52;;;;;;;66.57;31.33;;;7.30;99.90;;;;;;5056113;28;20143;-19
2023/12/19 00:06:18;;;;;;;68.13;32.15;;;8.20;99.90;;;;;;5055342;28;20041;-19
2023/12/19 00:08:43;;;;;;;56.90;27.50;;;8.10;99.90;;;;;;5055493;28;20506;-19
2023/12/19 00:11:09;;;;;;;58.78;28.90;;;8.30;99.90;;;;;;5055262;28;20041;-20
2023/12/19 00:13:35;;;;;;;63.22;28.40;;;8.50;99.90;;;;;;5056435;28;20052;-19
2023/12/19 00:16:03;;;;;;;62.80;29.50;;;7.90;99.90;;;;;;5055189;28;20056;-19
2023/12/19 00:18:30;;;;;;;62.38;29.27;;;8.30;99.90;;;;;;5038979;28;20469;-19
2023/12/19 00:20:56;;;;;;;50.22;25.30;;;7.90;99.90;;;;;;5055404;28;20059;-19
2023/12/19 00:23:22;;;;;;;50.28;24.17;;;8.00;99.90;;;;;;5056528;28;20053;-19
2023/12/19 00:25:48;;;;;;;51.72;27.23;;;8.10;99.90;;;;;;5056184;28;20565;-20
2023/12/19 00:28:14;;;;;;;44.60;22.40;;;7.80;99.90;;;;;;5055014;28;20053;-19
2023/12/19 00:30:40;;;;;;;53.58;26.38;;;7.10;99.90;;;;;;5056077;28;20537;-19
2023/12/19 00:33:06;;;;;;;57.30;26.77;;;8.60;99.90;;;;;;5056067;28;20052;-19
2023/12/19 00:35:33;;;;;;;36.30;20.27;;;8.20;99.90;;;;;;5038214;28;20525;-18
2023/12/19 00:38:02;;;;;;;59.90;27.08;;;8.60;99.90;;;;;;5021797;28;20056;-19
2023/12/19 00:40:28;;;;;;;86.55;35.92;;;7.10;99.90;;;;;;5054724;28;20537;-20
2023/12/19 00:42:53;;;;;;;56.50;27.45;;;8.50;99.90;;;;;;5056629;28;20045;-20
2023/12/19 00:45:19;;;;;;;40.85;20.80;;;7.90;99.90;;;;;;5055846;28;20491;-18
2023/12/19 00:47:45;;;;;;;52.72;26.08;;;8.30;99.90;;;;;;5055740;28;20049;-19
2023/12/19 00:50:15;;;;;;;59.85;27.77;;;7.00;99.90;;;;;;5055767;28;20045;-19
2023/12/19 00:52:41;;;;;;;59.42;26.38;;;8.00;99.90;;;;;;5054540;28;20045;-19
2023/12/19 00:55:08;;;;;;;50.30;23.90;;;7.80;99.90;;;;;;5054677;28;20045;-19
2023/12/19 00:57:34;;;;;;;58.50;27.88;;;8.50;99.90;;;;;;5055651;28;20049;-19
2023/12/19 01:00:00;;;;;;;60.10;27.35;;;8.30;99.90;;;;;;5054611;28;20102;-19
2023/12/19 01:02:27;;;;;;;62.08;27.98;;;8.50;99.90;;;;;;5053101;28;20491;-19
2023/12/19 01:04:56;;;;;;;46.17;20.92;;;8.50;99.90;;;;;;5055521;28;20088;-19
2023/12/19 01:07:23;;;;;;;65.80;30.65;;;8.50;99.90;;;;;;5055422;28;20048;-18
2023/12/19 01:09:48;;;;;;;78.25;32.95;;;8.60;99.90;;;;;;5055358;28;20096;-18
2023/12/19 01:12:14;;;;;;;51.45;23.83;;;7.00;99.90;;;;;;5055215;28;20037;-18
2023/12/19 01:14:41;;;;;;;47.63;24.55;;;7.00;99.90;;;;;;5055256;28;20040;-18
2023/12/19 01:17:07;;;;;;;57.47;27.10;;;8.40;99.90;;;;;;5055234;28;20057;-18
2023/12/19 01:19:33;;;;;;;53.83;26.20;;;8.50;99.90;;;;;;5055117;28;20045;-18
2023/12/19 01:21:59;;;;;;;65.50;29.40;;;8.50;99.90;;;;;;5054848;28;20049;-19
2023/12/19 01:24:25;;;;;;;44.25;21.88;;;8.50;99.90;;;;;;5055245;28;20068;-19
2023/12/19 01:26:51;;;;;;;34.55;20.40;;;7.10;99.90;;;;;;5055031;28;20434;-18
2023/12/19 01:29:18;;;;;;;38.45;19.20;;;8.10;99.90;;;;;;5054398;28;20131;-18
2023/12/19 01:31:44;;;;;;;36.65;20.40;;;7.40;99.90;;;;;;5037068;28;20103;-18
2023/12/19 01:34:11;;;;;;;28.50;17.30;;;7.50;99.90;;;;;;5053750;28;20049;-19
2023/12/19 01:36:41;;;;;;;32.72;17.15;;;7.00;99.90;;;;;;5054906;28;20041;-18
2023/12/19 01:39:08;;;;;;;38.70;19.48;;;8.60;99.90;;;;;;5055113;28;20438;-19
2023/12/19 01:41:34;;;;;;;39.38;20.90;;;8.50;99.90;;;;;;5054718;28;20045;-18
2023/12/19 01:44:00;;;;;;;46.47;23.40;;;8.40;99.90;;;;;;5054726;28;20052;-18
2023/12/19 01:46:26;;;;;;;38.17;21.05;;;7.00;99.90;;;;;;5054601;28;20118;-18
2023/12/19 01:48:52;;;;;;;33.95;17.98;;;7.20;99.90;;;;;;5054599;28;20049;-19
2023/12/19 01:51:18;;;;;;;42.50;20.60;;;8.60;99.90;;;;;;5055404;28;20056;-18
2023/12/19 01:53:49;;;;;;;27.00;14.70;;;8.50;99.90;;;;;;5054538;28;20045;-18
2023/12/19 01:56:18;;;;;;;31.85;16.30;;;8.40;99.90;;;;;;5055400;28;20052;-18
2023/12/19 01:58:45;;;;;;;33.22;17.30;;;7.10;99.90;;;;;;5054418;28;20060;-19
2023/12/19 02:01:12;;;;;;;29.67;17.70;;;7.20;99.90;;;;;;5053428;28;20048;-19
2023/12/19 02:03:39;;;;;;;28.90;15.50;;;8.40;99.90;;;;;;5054280;28;20080;-19
2023/12/19 02:06:06;;;;;;;24.08;14.90;;;8.50;99.90;;;;;;5054588;28;20056;-19
2023/12/19 02:08:34;;;;;;;38.05;19.15;;;8.20;99.90;;;;;;5054282;28;20040;-18
2023/12/19 02:11:00;;;;;;;42.83;20.10;;;8.40;99.90;;;;;;5053025;28;20105;-19
2023/12/19 02:13:26;;;;;;;22.55;13.48;;;8.50;99.90;;;;;;5053555;28;20048;-19
2023/12/19 02:15:52;;;;;;;35.90;19.33;;;7.20;99.90;;;;;;5053973;28;20041;-19
2023/12/19 02:18:19;;;;;;;27.98;15.60;;;8.50;99.90;;;;;;5054961;28;20372;-20
2023/12/19 02:20:45;;;;;;;22.27;12.07;;;7.10;99.90;;;;;;5054035;28;20052;-18
2023/12/19 02:23:12;;;;;;;29.27;15.52;;;8.30;99.90;;;;;;5053984;28;20056;-18
2023/12/19 02:25:38;;;;;;;24.65;14.38;;;8.50;99.90;;;;;;5053033;28;20442;-18
2023/12/19 02:28:04;;;;;;;32.33;17.45;;;7.70;99.90;;;;;;5053854;28;20055;-18
2023/12/19 02:30:30;;;;;;;37.53;18.60;;;8.40;99.90;;;;;;5053597;28;20474;-18
2023/12/19 02:32:58;;;;;;;37.58;19.05;;;8.00;99.90;;;;;;5053814;28;20045;-18
2023/12/19 02:35:24;;;;;;;23.15;12.82;;;8.40;99.90;;;;;;5054666;28;20051;-18
2023/12/19 02:37:50;;;;;;;37.35;19.17;;;7.10;99.90;;;;;;5053798;28;20051;-18
2023/12/19 02:40:16;;;;;;;31.02;17.35;;;8.50;99.90;;;;;;5053716;28;20045;-19
2023/12/19 02:42:42;;;;;;;27.40;14.68;;;7.50;99.90;;;;;;5053666;28;20041;-19
2023/12/19 02:45:10;;;;;;;24.73;14.82;;;7.40;99.90;;;;;;5053739;28;20052;-18
2023/12/19 02:47:36;;;;;;;40.60;20.10;;;7.10;99.90;;;;;;5052482;28;20044;-18
2023/12/19 02:50:02;;;;;;;35.28;18.40;;;8.40;99.90;;;;;;5053616;28;20044;-18
2023/12/19 02:52:27;;;;;;;34.35;16.80;;;8.10;99.90;;;;;;5053597;28;20044;-19
2023/12/19 02:54:53;;;;;;;35.55;19.25;;;7.10;99.90;;;;;;5054414;28;20052;-18
2023/12/19 02:57:19;;;;;;;35.42;17.55;;;7.10;99.90;;;;;;5052597;28;20045;-19
2023/12/19 02:59:45;;;;;;;25.77;14.48;;;7.00;99.90;;;;;;5052544;28;20049;-19
2023/12/19 03:02:10;;;;;;;29.48;14.90;;;7.70;99.90;;;;;;5052254;28;20041;-19
2023/12/19 03:04:38;;;;;;;30.17;16.13;;;7.00;99.90;;;;;;5053768;28;20040;-19
2023/12/19 03:07:04;;;;;;;26.63;14.13;;;7.00;99.90;;;;;;5054016;28;20045;-19
2023/12/19 03:09:30;;;;;;;47.78;21.33;;;7.10;99.90;;;;;;5053457;28;20124;-19
2023/12/19 03:12:07;;;;;;;38.28;19.45;;;7.10;99.90;;;;;;5053373;28;20140;-19
2023/12/19 03:14:34;;;;;;;25.80;15.40;;;7.90;99.90;;;;;;5053456;28;20089;-19
2023/12/19 03:17:04;;;;;;;29.98;15.30;;;7.60;99.90;;;;;;5053367;28;20045;-18
2023/12/19 03:19:31;;;;;;;36.97;19.50;;;7.70;99.90;;;;;;5053336;28;20087;-19
2023/12/19 03:21:56;;;;;;;36.60;17.42;;;6.90;99.90;;;;;;5053217;28;20061;-19
2023/12/19 03:24:23;;;;;;;31.23;16.10;;;7.90;99.90;;;;;;5053838;28;20044;-18
2023/12/19 03:26:49;;;;;;;29.70;16.98;;;7.00;99.90;;;;;;5056253;28;20045;-19
2023/12/19 03:29:15;;;;;;;28.90;14.23;;;8.30;99.90;;;;;;5057261;28;20049;-20
2023/12/19 03:31:42;;;;;;;42.90;19.20;;;6.90;99.90;;;;;;5057243;28;20045;-20
2023/12/19 03:34:08;;;;;;;27.38;14.85;;;8.10;99.90;;;;;;5056819;28;20388;-19
2023/12/19 03:36:34;;;;;;;48.08;23.17;;;7.90;99.90;;;;;;5057200;28;20047;-19
2023/12/19 03:39:00;;;;;;;23.08;12.10;;;6.90;99.90;;;;;;5057651;28;20045;-18
2023/12/19 03:41:26;;;;;;;24.58;14.30;;;8.10;99.90;;;;;;5056382;28;20048;-18
2023/12/19 03:43:51;;;;;;;41.67;19.00;;;6.90;99.90;;;;;;5057489;28;20049;-20
2023/12/19 03:46:17;;;;;;;35.35;18.38;;;6.90;99.90;;;;;;5056990;28;20129;-20
2023/12/19 03:48:45;;;;;;;27.75;14.18;;;6.90;99.90;;;;;;5055965;28;20499;-18
2023/12/19 03:51:14;;;;;;;32.05;16.88;;;7.40;99.90;;;;;;5056878;28;20045;-19
2023/12/19 03:53:40;;;;;;;30.20;15.05;;;8.20;99.90;;;;;;5057629;28;20041;-18
2023/12/19 03:56:06;;;;;;;40.03;19.83;;;8.20;99.90;;;;;;5056648;28;20053;-19
2023/12/19 03:58:32;;;;;;;39.90;18.92;;;7.80;99.90;;;;;;5056746;28;20502;-18
2023/12/19 04:01:01;;;;;;;27.13;13.82;;;8.00;99.90;;;;;;5056624;28;20099;-18
2023/12/19 04:03:27;;;;;;;33.13;15.95;;;8.30;99.90;;;;;;5056541;28;20076;-18
2023/12/19 04:05:53;;;;;;;28.35;14.38;;;8.10;99.90;;;;;;5056627;28;20087;-18
2023/12/19 04:08:19;;;;;;;25.10;12.57;;;7.10;99.90;;;;;;5055932;28;20144;-18
2023/12/19 04:10:45;;;;;;;29.95;14.98;;;7.60;99.90;;;;;;5056536;28;20132;-18
2023/12/19 04:13:13;;;;;;;30.65;15.68;;;8.30;99.90;;;;;;5055323;28;20372;-20
2023/12/19 04:15:39;;;;;;;19.55;10.23;;;8.10;99.90;;;;;;5057226;28;20045;-18
2023/12/19 04:18:04;;;;;;;31.70;15.00;;;8.20;99.90;;;;;;5056615;28;20384;-18
2023/12/19 04:20:30;;;;;;;25.73;13.52;;;8.10;99.90;;;;;;5056349;28;20048;-19
2023/12/19 04:22:56;;;;;;;16.95;9.63;;;8.30;99.90;;;;;;5055697;28;20410;-19
2023/12/19 04:25:22;;;;;;;12.32;6.85;;;7.50;99.90;;;;;;5055069;28;20044;-19
2023/12/19 04:27:47;;;;;;;18.80;10.35;;;7.80;99.90;;;;;;5056141;28;20045;-18
2023/12/19 04:30:13;;;;;;;24.05;11.15;;;6.80;99.90;;;;;;5054969;28;20079;-18
2023/12/19 04:32:39;;;;;;;20.33;10.52;;;8.10;99.90;;;;;;5056685;28;20049;-19
2023/12/19 04:35:05;;;;;;;20.98;10.02;;;8.10;99.90;;;;;;5054968;28;20135;-20
2023/12/19 04:37:33;;;;;;;20.50;10.70;;;7.30;99.90;;;;;;5056534;28;20044;-18
2023/12/19 04:39:58;;;;;;;13.27;7.40;;;8.20;99.90;;;;;;5055934;28;20064;-18
2023/12/19 04:42:24;;;;;;;17.65;9.32;;;8.10;99.90;;;;;;5054635;28;20391;-19
2023/12/19 04:44:50;;;;;;;21.25;11.95;;;8.20;99.90;;;;;;5055292;28;20087;-18
2023/12/19 04:47:16;;;;;;;13.43;7.88;;;8.30;99.90;;;;;;5055869;28;20132;-18
2023/12/19 04:49:43;;;;;;;16.33;8.98;;;6.80;99.90;;;;;;5039038;28;20429;-19
2023/12/19 04:52:13;;;;;;;14.98;7.85;;;8.30;99.90;;;;;;5055401;28;20407;-19
2023/12/19 04:54:39;;;;;;;14.50;7.72;;;8.20;99.90;;;;;;5055390;28;20101;-19
2023/12/19 04:57:05;;;;;;;13.82;8.45;;;7.60;99.90;;;;;;5055617;28;20132;-18
2023/12/19 04:59:32;;;;;;;21.63;11.93;;;8.20;99.90;;;;;;5055328;28;20555;-20
2023/12/19 05:01:58;;;;;;;18.48;10.05;;;8.20;99.90;;;;;;5054556;28;20053;-18
2023/12/19 05:04:23;;;;;;;15.45;7.85;;;6.90;99.90;;;;;;5055498;28;20483;-18
2023/12/19 05:06:49;;;;;;;20.63;10.60;;;8.00;99.90;;;;;;5055494;28;20055;-19
2023/12/19 05:09:15;;;;;;;22.70;11.20;;;8.30;99.90;;;;;;5055433;28;20048;-20
2023/12/19 05:11:44;;;;;;;14.43;9.07;;;8.30;99.90;;;;;;5055346;28;20049;-18
2023/12/19 05:14:10;;;;;;;19.45;10.65;;;6.90;99.90;;;;;;5055442;28;20056;-18
2023/12/19 05:16:36;;;;;;;14.55;8.48;;;7.90;99.90;;;;;;5054139;28;20040;-20
2023/12/19 05:19:04;;;;;;;12.63;7.00;;;8.20;99.90;;;;;;5055228;28;20044;-19
2023/12/19 05:21:39;;;;;;;12.55;6.57;;;7.30;99.90;;;;;;5055012;28;20055;-19
2023/12/19 05:24:05;;;;;;;8.50;5.63;;;7.00;99.90;;;;;;5055407;28;20071;-18
2023/12/19 05:26:32;;;;;;;16.95;9.32;;;7.80;99.90;;;;;;5054998;28;20041;-19
2023/12/19 05:28:57;;;;;;;14.13;7.78;;;8.30;99.90;;;;;;5054079;28;20495;-19
2023/12/19 05:31:23;;;;;;;13.07;7.93;;;7.20;99.90;;;;;;5055054;28;20056;-18
2023/12/19 05:33:49;;;;;;;8.23;5.68;;;8.20;99.90;;;;;;5055538;28;20041;-18
2023/12/19 05:36:15;;;;;;;11.88;7.07;;;7.90;99.90;;;;;;5054875;28;20399;-19
2023/12/19 05:38:41;;;;;;;13.05;7.40;;;8.30;99.90;;;;;;5053936;28;20403;-19
2023/12/19 05:41:08;;;;;;;7.70;4.88;;;7.60;99.90;;;;;;5055091;28;20041;-18
2023/12/19 05:43:34;;;;;;;11.98;6.43;;;8.30;99.90;;;;;;5054704;28;20044;-19
2023/12/19 05:46:00;;;;;;;12.38;7.47;;;8.30;99.90;;;;;;5053454;28;20072;-18
2023/12/19 05:48:25;;;;;;;13.52;7.28;;;7.10;99.90;;;;;;5052908;28;20045;-18
2023/12/19 05:50:51;;;;;;;13.70;7.22;;;7.10;99.90;;;;;;5054461;28;20052;-19
2023/12/19 05:53:17;;;;;;;16.13;8.50;;;8.20;99.90;;;;;;5054827;28;20041;-19
2023/12/19 05:55:44;;;;;;;18.55;9.05;;;7.40;99.90;;;;;;5053532;28;20060;-18
2023/12/19 05:58:10;;;;;;;15.77;9.30;;;7.20;99.90;;;;;;5054323;28;20091;-20
2023/12/19 06:00:36;;;;;;;15.25;8.20;;;7.80;99.90;;;;;;5054439;28;20084;-20
2023/12/19 06:03:02;;;;;;;13.50;7.82;;;8.30;99.90;;;;;;5053689;28;20135;-20
2023/12/19 06:05:28;;;;;;;12.88;7.38;;;7.40;99.90;;;;;;5037581;28;20072;-20
2023/12/19 06:07:54;;;;;;;14.68;9.10;;;8.40;99.90;;;;;;5053368;28;20048;-20
2023/12/19 06:10:19;;;;;;;11.30;4.65;;;7.50;99.90;;;;;;5053058;28;20048;-19
2023/12/19 06:12:46;;;;;;;16.83;8.75;;;7.50;99.90;;;;;;5053028;28;20119;-19
2023/12/19 06:15:15;;;;;;;12.68;7.40;;;8.40;99.90;;;;;;5055016;28;20118;-20
2023/12/19 06:17:46;;;;;;;13.95;8.23;;;8.30;99.90;;;;;;5054076;28;20106;-20
2023/12/19 06:20:12;;;;;;;15.55;7.43;;;8.20;99.90;;;;;;5054464;28;20387;-20
2023/12/19 06:22:39;;;;;;;17.83;9.43;;;7.60;99.90;;;;;;5053557;28;20056;-20
2023/12/19 06:25:06;;;;;;;15.80;8.25;;;7.30;99.90;;;;;;5054047;28;20486;-19
2023/12/19 06:27:33;;;;;;;15.73;8.00;;;8.50;99.90;;;;;;5052692;28;20107;-19
2023/12/19 06:29:59;;;;;;;17.17;8.45;;;7.30;99.90;;;;;;5052975;28;20102;-19
2023/12/19 06:32:27;;;;;;;10.60;6.07;;;7.90;99.90;;;;;;5053888;28;20053;-19
2023/12/19 06:34:55;;;;;;;13.07;6.30;;;7.30;99.90;;;;;;5052646;28;20084;-20
2023/12/19 06:37:21;;;;;;;15.88;9.15;;;8.50;99.90;;;;;;5036286;28;20084;-19
2023/12/19 06:39:46;;;;;;;10.70;6.68;;;8.50;99.90;;;;;;5053789;28;20056;-19
2023/12/19 06:42:12;;;;;;;15.20;9.07;;;7.50;99.90;;;;;;5053692;28;20493;-19
2023/12/19 06:44:38;;;;;;;16.73;9.93;;;7.80;99.90;;;;;;5053066;28;20403;-19
2023/12/19 06:47:04;;;;;;;16.00;8.75;;;8.40;99.90;;;;;;5053751;28;20045;-19
2023/12/19 06:49:30;;;;;;;13.68;8.88;;;8.50;99.90;;;;;;5053644;28;20041;-20
2023/12/19 06:51:56;;;;;;;11.77;6.90;;;7.60;99.90;;;;;;5053657;28;20510;-19
2023/12/19 06:54:22;;;;;;;13.63;8.23;;;7.30;99.90;;;;;;5053472;28;20476;-20
2023/12/19 06:56:48;;;;;;;11.57;6.78;;;8.50;99.90;;;;;;5053593;28;20130;-19
2023/12/19 06:59:14;;;;;;;15.45;8.48;;;7.40;99.90;;;;;;5052655;28;20053;-19
2023/12/19 07:01:40;;;;;;;16.00;9.00;;;7.70;99.90;;;;;;5053799;28;20397;-20
2023/12/19 07:04:06;;;;;;;21.23;11.40;;;8.00;99.90;;;;;;5053463;28;20055;-19
2023/12/19 07:06:36;;;;;;;16.90;8.93;;;7.70;99.90;;;;;;5053763;28;20049;-20
2023/12/19 07:09:02;;;;;;;12.80;7.75;;;8.50;99.90;;;;;;5052844;28;20041;-20
2023/12/19 07:11:28;;;;;;;19.58;9.77;;;7.40;99.90;;;;;;5054271;28;20098;-20
2023/12/19 07:13:53;;;;;;;12.20;7.60;;;8.40;99.90;;;;;;5035950;28;20518;-19
2023/12/19 07:16:19;;;;;;;20.23;11.13;;;8.50;99.90;;;;;;5053382;28;20041;-18
2023/12/19 07:18:46;;;;;;;21.45;10.38;;;8.40;99.90;;;;;;5053392;28;20052;-19
2023/12/19 07:21:22;;;;;;;19.27;10.35;;;8.00;99.90;;;;;;5053343;28;20132;-20
2023/12/19 07:23:49;;;;;;;18.00;9.82;;;7.70;99.90;;;;;;5053629;28;20059;-20
2023/12/19 07:26:28;;;;;;;16.27;9.82;;;8.60;99.90;;;;;;5053431;28;20060;-19
2023/12/19 07:28:57;;;;;;;11.18;6.38;;;8.60;99.90;;;;;;5053300;28;20095;-19
2023/12/19 07:31:26;;;;;;;19.35;9.65;;;7.50;99.90;;;;;;5053260;28;20051;-19
2023/12/19 07:34:00;;;;;;;17.13;10.27;;;7.40;99.90;;;;;;5054073;28;20045;-19
2023/12/19 07:36:26;;;;;;;16.83;8.82;;;7.50;99.90;;;;;;5053497;28;20529;-19
2023/12/19 07:38:55;;;;;;;13.10;7.07;;;8.40;99.90;;;;;;5053197;28;20044;-19
2023/12/19 07:41:23;;;;;;;17.13;8.68;;;7.60;99.90;;;;;;5053113;28;20479;-19
2023/12/19 07:43:49;;;;;;;12.82;7.25;;;7.70;99.90;;;;;;5051926;28;20057;-19
2023/12/19 07:46:15;;;;;;;16.90;9.25;;;8.70;99.90;;;;;;5051936;28;20403;-19
2023/12/19 07:48:41;;;;;;;14.32;8.02;;;7.70;99.90;;;;;;5053128;28;20088;-18
2023/12/19 07:51:08;;;;;;;12.43;7.40;;;7.60;99.90;;;;;;5053072;28;20079;-18
2023/12/19 07:53:34;;;;;;;8.00;5.72;;;7.60;99.90;;;;;;5053068;28;20040;-19
2023/12/19 07:56:03;;;;;;;12.15;7.28;;;8.60;99.90;;;;;;5053007;28;20407;-18
2023/12/19 07:58:30;;;;;;;10.57;6.03;;;7.80;99.90;;;;;;5052966;28;20049;-18
2023/12/19 08:00:56;;;;;;;9.77;6.13;;;8.00;99.90;;;;;;5053060;28;20128;-18
2023/12/19 08:03:27;;;;;;;12.88;7.68;;;7.50;99.90;;;;;;5053160;28;20123;-18
2023/12/19 08:05:55;;;;;;;13.13;6.60;;;7.80;99.90;;;;;;5052972;28;20052;-18
2023/12/19 08:08:21;;;;;;;12.00;6.53;;;7.60;99.90;;;;;;5052880;28;20053;-18
2023/12/19 08:10:47;;;;;;;15.05;8.13;;;8.70;99.90;;;;;;5053948;28;20045;-19
2023/12/19 08:13:13;;;;;;;13.35;7.60;;;7.70;99.90;;;;;;5055288;28;20068;-18
2023/12/19 08:15:42;;;;;;;13.35;7.15;;;8.70;99.90;;;;;;5056404;28;20544;-18
2023/12/19 08:18:09;;;;;;;9.60;6.30;;;7.90;99.90;;;;;;5056421;28;20045;-18
2023/12/19 08:20:35;;;;;;;11.20;6.30;;;8.10;99.90;;;;;;5038722;28;20041;-18
2023/12/19 08:23:02;;;;;;;12.63;7.10;;;8.10;99.90;;;;;;5056407;28;20132;-18
2023/12/19 08:25:28;;;;;;;12.85;7.00;;;7.60;99.90;;;;;;5056277;28;20052;-18
2023/12/19 08:27:54;;;;;;;14.90;8.30;;;7.70;99.90;;;;;;5056115;28;20107;-18
2023/12/19 08:30:20;;;;;;;13.48;7.00;;;8.80;99.90;;;;;;5054907;28;20376;-18
2023/12/19 08:32:46;;;;;;;13.48;7.60;;;8.80;99.90;;;;;;5055956;28;20068;-18
2023/12/19 08:35:11;;;;;;;11.52;6.57;;;8.60;99.90;;;;;;5056083;28;20049;-18
2023/12/19 08:37:37;;;;;;;16.00;8.88;;;8.00;99.90;;;;;;5056076;28;20052;-18
2023/12/19 08:40:04;;;;;;;17.27;8.85;;;8.30;99.90;;;;;;5054746;28;20407;-18
2023/12/19 08:42:30;;;;;;;15.77;8.02;;;8.70;99.90;;;;;;5055042;28;20049;-18
2023/12/19 08:44:56;;;;;;;15.05;8.45;;;7.90;99.90;;;;;;5056450;28;20433;-18
2023/12/19 08:47:25;;;;;;;23.48;10.80;;;7.80;99.90;;;;;;5055913;28;20049;-19
2023/12/19 08:49:52;;;;;;;17.67;10.07;;;8.50;99.90;;;;;;5055816;28;20041;-19
2023/12/19 08:52:22;;;;;;;22.17;11.73;;;8.70;99.90;;;;;;5055793;28;20076;-19
2023/12/19 08:54:48;;;;;;;12.95;7.63;;;8.10;99.90;;;;;;5055748;28;20406;-19
2023/12/19 08:57:14;;;;;;;25.15;12.73;;;7.70;99.90;;;;;;5054748;28;20124;-19
2023/12/19 08:59:40;;;;;;;19.50;11.35;;;7.90;99.90;;;;;;5055647;28;20055;-19
2023/12/19 09:02:06;;;;;;;14.25;8.90;;;8.00;99.90;;;;;;5056085;28;20053;-19
2023/12/19 09:04:32;;;;;;;24.83;12.77;;;7.80;99.90;;;;;;5055535;28;20045;-19
2023/12/19 09:06:59;;;;;;;24.08;12.13;;;8.50;99.90;;;;;;5054785;28;20063;-19
2023/12/19 09:09:27;;;;;;;31.80;15.98;;;8.40;99.90;;;;;;5055451;28;20048;-20
2023/12/19 09:11:54;;;;;;;21.35;11.75;;;7.90;99.90;;;;;;5055400;28;20049;-20
2023/12/19 09:14:20;;;;;;;22.25;12.05;;;8.00;99.90;;;;;;5054459;28;20107;-20
2023/12/19 09:16:46;;;;;;;29.92;15.27;;;8.00;99.90;;;;;;5055205;28;20044;-20
2023/12/19 09:19:15;;;;;;;24.98;13.02;;;9.00;99.90;;;;;;5055277;28;20060;-20
2023/12/19 09:21:41;;;;;;;29.85;15.82;;;8.90;99.90;;;;;;5053421;28;20103;-20
2023/12/19 09:24:07;;;;;;;29.83;15.15;;;8.30;99.90;;;;;;5054663;28;20057;-20
2023/12/19 09:26:33;;;;;;;29.60;15.27;;;8.40;99.90;;;;;;5055578;28;20044;-19
2023/12/19 09:28:59;;;;;;;32.60;15.23;;;8.60;99.90;;;;;;5055026;28;20049;-20
2023/12/19 09:31:25;;;;;;;32.65;16.23;;;8.00;99.90;;;;;;5055021;28;20044;-20
2023/12/19 09:33:50;;;;;;;26.42;14.13;;;9.10;99.90;;;;;;5053829;28;20131;-20
2023/12/19 09:36:24;;;;;;;26.77;12.68;;;9.20;99.90;;;;;;5054889;28;20052;-21
2023/12/19 09:38:50;;;;;;;19.50;11.18;;;9.20;99.90;;;;;;5054809;28;20045;-19
2023/12/19 09:41:17;;;;;;;21.83;12.07;;;8.10;99.90;;;;;;5038077;28;20407;-20
2023/12/19 09:43:43;;;;;;;26.90;14.20;;;8.10;99.90;;;;;;5037732;28;20402;-20
2023/12/19 09:46:10;;;;;;;24.73;11.93;;;9.30;99.90;;;;;;5054722;28;20136;-19
2023/12/19 09:48:37;;;;;;;21.98;11.68;;;9.10;99.90;;;;;;5053645;28;20045;-19
2023/12/19 09:51:04;;;;;;;28.17;14.32;;;9.00;99.90;;;;;;5055433;28;20049;-20
2023/12/19 09:53:32;;;;;;;31.08;15.25;;;8.80;99.90;;;;;;5054551;28;20041;-20
2023/12/19 09:55:58;;;;;;;24.05;10.98;;;9.00;99.90;;;;;;5054532;28;20059;-19
2023/12/19 09:58:28;;;;;;;24.10;12.23;;;8.50;99.90;;;;;;5053298;28;20494;-20
2023/12/19 10:01:00;;;;;;;28.15;13.18;;;9.30;99.90;;;;;;5054363;28;20123;-20
2023/12/19 10:03:29;;;;;;;29.08;13.43;;;9.10;99.90;;;;;;5054073;28;20048;-20
2023/12/19 10:05:59;;;;;;;22.23;11.40;;;9.30;99.90;;;;;;5054908;28;20094;-20
2023/12/19 10:08:24;;;;;;;27.80;13.60;;;8.70;99.90;;;;;;5054599;28;20041;-19
2023/12/19 10:10:55;;;;;;;24.77;12.95;;;9.20;99.90;;;;;;5054294;28;20079;-20
2023/12/19 10:13:28;;;;;;;29.35;14.18;;;9.40;99.90;;;;;;5055055;28;20041;-20
2023/12/19 10:16:08;;;;;;;21.98;10.90;;;9.40;99.90;;;;;;5053783;28;20056;-20
2023/12/19 10:18:36;;;;;;;25.42;11.23;;;8.30;99.90;;;;;;5053023;28;20049;-20
2023/12/19 10:21:10;;;;;;;25.70;12.45;;;8.70;99.90;;;;;;5054784;28;20045;-20
2023/12/19 10:23:43;;;;;;;24.10;11.82;;;9.30;99.90;;;;;;5052520;28;20092;-19
2023/12/19 10:26:10;;;;;;;23.50;11.02;;;8.40;99.90;;;;;;5053918;28;20061;-20
2023/12/19 10:28:37;;;;;;;21.02;9.68;;;8.30;99.90;;;;;;5052818;28;20132;-19
2023/12/19 10:31:06;;;;;;;19.33;8.45;;;8.30;99.90;;;;;;5053596;28;20491;-20
2023/12/19 10:33:46;;;;;;;29.52;13.30;;;8.60;99.90;;;;;;5054518;28;20079;-20
2023/12/19 10:36:26;;;;;;;24.42;11.38;;;9.40;99.90;;;;;;5052750;28;20052;-20
2023/12/19 10:38:53;;;;;;;24.48;11.38;;;9.50;99.90;;;;;;5052676;28;20048;-20
2023/12/19 10:41:30;;;;;;;31.10;12.50;;;9.60;99.90;;;;;;5053757;28;20110;-20
2023/12/19 10:43:57;;;;;;;25.48;10.63;;;8.50;99.90;;;;;;5054557;28;20040;-20
2023/12/19 10:46:30;;;;;;;33.03;13.20;;;9.70;99.90;;;;;;5052765;28;20049;-20
2023/12/19 10:49:00;;;;;;;37.80;13.20;;;9.70;99.90;;;;;;5036217;28;20178;-21
2023/12/19 10:51:39;;;;;;;31.23;13.85;;;8.80;99.90;;;;;;5052582;28;20438;-20
2023/12/19 10:54:08;;;;;;;26.65;11.20;;;9.60;99.90;;;;;;5052867;28;20471;-20
2023/12/19 10:57:08;;;;;;;23.42;10.23;;;9.50;99.90;;;;;;5054192;28;20052;-21
2023/12/19 11:00:13;;;;;;;30.42;11.90;;;8.60;99.90;;;;;;5054127;28;20106;-21
2023/12/19 11:03:11;;;;;;;32.70;14.25;;;9.60;99.90;;;;;;5053513;28;20049;-20
2023/12/19 11:05:42;;;;;;;29.77;12.07;;;8.80;99.90;;;;;;5052583;28;20506;-20
2023/12/19 11:08:17;;;;;;;26.27;10.90;;;10.00;99.90;;;;;;5052721;28;20053;-20
2023/12/19 11:11:05;;;;;;;21.50;10.30;;;8.80;99.90;;;;;;5052316;28;20609;-20
2023/12/19 11:13:33;;;;;;;27.75;11.77;;;9.40;99.90;;;;;;5054069;28;20045;-20
2023/12/19 11:16:10;;;;;;;26.77;11.48;;;9.80;99.90;;;;;;5053391;28;20109;-20
2023/12/19 11:19:07;;;;;;;26.85;11.18;;;9.40;99.90;;;;;;5053432;28;20052;-21
2023/12/19 11:22:00;;;;;;;21.95;10.48;;;9.60;99.90;;;;;;5053535;28;20049;-20
2023/12/19 11:24:35;;;;;;;26.75;11.68;;;8.80;99.90;;;;;;5053679;28;20120;-21
2023/12/19 11:27:26;;;;;;;35.05;13.88;;;10.00;99.90;;;;;;5053471;28;20120;-20
2023/12/19 11:29:54;;;;;;;24.08;11.45;;;9.90;99.90;;;;;;5054115;28;20081;-20
2023/12/19 11:32:38;;;;;;;27.33;12.32;;;8.80;99.90;;;;;;5053226;28;20049;-21
2023/12/19 11:35:08;;;;;;;27.33;11.70;;;9.70;99.90;;;;;;5053839;28;20077;-20
2023/12/19 11:37:34;;;;;;;28.40;12.85;;;9.50;99.90;;;;;;5053871;28;20049;-20
2023/12/19 11:40:00;;;;;;;28.65;13.68;;;10.00;99.90;;;;;;5053431;28;20119;-21
2023/12/19 11:42:38;;;;;;;32.20;14.45;;;8.90;99.90;;;;;;5053120;28;20160;-20
2023/12/19 11:45:18;;;;;;;28.90;13.75;;;9.00;99.90;;;;;;5053162;28;20084;-20
2023/12/19 11:47:45;;;;;;;23.55;12.80;;;10.10;99.90;;;;;;5056988;28;20041;-20
2023/12/19 11:50:11;;;;;;;25.52;13.32;;;9.40;99.90;;;;;;5039628;28;20049;-21
2023/12/19 11:52:37;;;;;;;25.65;13.55;;;9.10;99.90;;;;;;5057361;28;20103;-20
2023/12/19 11:55:09;;;;;;;31.33;15.48;;;9.70;99.90;;;;;;5056746;28;20045;-20
2023/12/19 11:57:38;;;;;;;24.38;13.23;;;10.00;99.90;;;;;;5056966;28;20053;-21
2023/12/19 12:00:06;;;;;;;26.33;14.20;;;9.20;99.90;;;;;;5057034;28;20052;-21
2023/12/19 12:02:36;;;;;;;28.13;13.27;;;9.80;99.90;;;;;;5057056;28;20067;-20
2023/12/19 12:05:10;;;;;;;17.65;9.93;;;10.00;99.90;;;;;;5056801;28;20483;-19
2023/12/19 12:07:39;;;;;;;;;;;9.90;99.90;;;;;;5057866;28;20056;-19
2023/12/19 12:10:06;;;;;;;10.60;6.22;;;8.90;99.90;;;;;;5056490;28;19927;-19
2023/12/19 12:12:36;;;;;;;16.70;9.63;;;8.70;99.90;;;;;;5056463;28;20048;-19
2023/12/19 12:15:11;;;;;;;20.73;11.00;;;9.40;99.90;;;;;;5056920;28;20044;-20
2023/12/19 12:17:36;;;;;;;18.45;10.57;;;9.20;99.90;;;;;;5055088;28;20399;-19
2023/12/19 12:20:06;;;;;;;19.00;10.00;;;9.80;99.90;;;;;;5055823;28;20045;-20
2023/12/19 12:22:32;;;;;;;21.70;10.70;;;9.80;99.90;;;;;;5056384;28;20049;-20
2023/12/19 12:25:02;;;;;;;17.05;9.48;;;8.90;99.90;;;;;;5056188;28;20053;-20
2023/12/19 12:27:28;;;;;;;21.05;10.80;;;8.70;99.90;;;;;;5055880;28;20052;-20
2023/12/19 12:29:57;;;;;;;23.65;11.35;;;8.80;99.90;;;;;;5056217;28;20094;-20
2023/12/19 12:32:27;;;;;;;20.50;10.73;;;8.80;99.90;;;;;;5056909;28;20045;-20
2023/12/19 12:34:53;;;;;;;20.10;10.25;;;8.70;99.90;;;;;;5055792;28;20053;-20
2023/12/19 12:37:20;;;;;;;20.80;10.93;;;9.90;99.90;;;;;;5055606;28;20571;-20
2023/12/19 12:39:46;;;;;;;20.80;9.90;;;9.80;99.90;;;;;;5054999;28;20057;-21
2023/12/19 12:42:13;;;;;;;22.23;10.20;;;9.40;99.90;;;;;;5055850;28;20056;-20
2023/12/19 12:44:42;;;;;;;22.50;10.40;;;8.80;99.90;;;;;;5055902;28;20515;-21